Time;durP1;ratioP1;P1;durP2;ratioP2;P2;SDS_P1;SDS_P2;PMS_P1;PMS_P2;Temp;Humidity;BMP_temperature;BMP_pressure;BME280_temperature;BME280_humidity;BME280_pressure;Samples;Min_cycle;Max_cycle;Signal;HPM_P1;HPM_P2
2022/07/26 00:00:04;;;;;;;2.63;1.85;;;21.90;99.90;;;;;;5050526;28;20194;-65
2022/07/26 00:02:31;;;;;;;3.97;2.00;;;21.90;99.90;;;;;;5052939;28;20199;-66
2022/07/26 00:04:58;;;;;;;4.50;2.10;;;21.80;99.90;;;;;;5051714;28;20310;-66
2022/07/26 00:07:25;;;;;;;5.72;1.80;;;21.70;99.90;;;;;;5052903;28;20191;-66
2022/07/26 00:09:53;;;;;;;4.00;2.30;;;21.60;99.90;;;;;;5049776;28;20267;-66
2022/07/26 00:12:19;;;;;;;4.78;2.33;;;21.40;99.90;;;;;;5047089;28;20887;-66
2022/07/26 00:14:46;;;;;;;3.10;1.80;;;21.30;99.90;;;;;;5053435;28;20194;-66
2022/07/26 00:17:13;;;;;;;4.28;2.00;;;21.10;99.90;;;;;;5053825;28;20229;-66
2022/07/26 00:19:39;;;;;;;4.07;2.20;;;21.00;99.90;;;;;;5046865;28;20214;-66
2022/07/26 00:24:52;;;;;;;2.90;1.83;;;20.90;99.90;;;;;;5050626;28;20198;-66
2022/07/26 00:27:19;;;;;;;2.42;1.90;;;20.80;99.90;;;;;;5048757;28;20199;-66
2022/07/26 00:29:45;;;;;;;2.70;1.70;;;20.80;99.90;;;;;;5051050;28;20206;-66
2022/07/26 00:32:12;;;;;;;2.70;1.70;;;20.90;99.90;;;;;;5050228;28;20249;-66
2022/07/26 00:34:39;;;;;;;2.58;1.80;;;20.90;99.90;;;;;;5047254;28;20209;-66
2022/07/26 00:37:05;;;;;;;2.60;1.83;;;21.00;99.90;;;;;;5053612;28;20203;-65
2022/07/26 00:39:32;;;;;;;4.63;2.03;;;21.10;99.90;;;;;;5051893;28;20217;-66
2022/07/26 00:41:58;;;;;;;4.10;1.83;;;21.20;99.90;;;;;;5050912;28;20581;-66
2022/07/26 00:44:42;;;;;;;8.20;1.80;;;21.20;99.90;;;;;;5049540;28;20596;-66
2022/07/26 00:47:11;;;;;;;3.95;2.00;;;21.30;99.90;;;;;;5053155;28;20297;-66
2022/07/26 00:49:37;;;;;;;4.32;2.10;;;21.30;99.90;;;;;;5052304;28;20625;-66
2022/07/26 00:52:05;;;;;;;3.22;1.98;;;21.30;99.90;;;;;;5045069;28;20215;-66
2022/07/26 00:54:32;;;;;;;3.88;1.50;;;21.40;99.90;;;;;;5053441;28;20198;-66
2022/07/26 00:56:59;;;;;;;3.63;1.50;;;21.70;99.90;;;;;;5047248;28;20578;-66
2022/07/26 00:59:26;;;;;;;2.58;1.50;;;21.70;99.90;;;;;;5054324;28;20198;-66
2022/07/26 01:01:53;;;;;;;4.65;1.85;;;21.60;99.90;;;;;;5051308;28;20214;-66
2022/07/26 01:04:20;;;;;;;4.72;1.70;;;21.70;99.90;;;;;;5051091;28;20198;-66
2022/07/26 01:06:48;;;;;;;4.18;1.88;;;21.70;99.90;;;;;;5049348;28;20214;-66
2022/07/26 01:09:17;;;;;;;4.18;1.77;;;21.90;99.90;;;;;;5049525;28;20561;-66
2022/07/26 01:11:44;;;;;;;3.47;1.65;;;21.80;99.90;;;;;;5050690;28;20222;-66
2022/07/26 01:14:11;;;;;;;2.50;1.80;;;21.90;99.90;;;;;;5048530;28;20202;-66
2022/07/26 01:16:38;;;;;;;4.05;1.67;;;21.90;99.90;;;;;;5049667;28;20235;-66
2022/07/26 01:19:05;;;;;;;3.90;1.55;;;21.90;99.90;;;;;;5047049;28;20275;-66
2022/07/26 01:21:32;;;;;;;3.67;1.80;;;21.70;99.90;;;;;;5050743;28;20217;-66
2022/07/26 01:23:59;;;;;;;2.20;1.60;;;21.60;99.90;;;;;;5044625;28;20206;-66
2022/07/26 01:26:26;;;;;;;2.42;1.42;;;21.50;99.90;;;;;;5041237;28;20202;-66
2022/07/26 01:28:53;;;;;;;2.50;1.77;;;21.50;99.90;;;;;;5046319;28;20202;-66
2022/07/26 01:31:20;;;;;;;1.73;1.60;;;21.50;99.90;;;;;;5039007;28;20636;-66
2022/07/26 01:33:47;;;;;;;7.32;1.90;;;21.40;99.90;;;;;;5046282;28;20249;-66
2022/07/26 01:36:13;;;;;;;2.83;1.70;;;21.40;99.90;;;;;;5047246;28;20200;-66
2022/07/26 01:38:40;;;;;;;3.33;1.70;;;21.40;99.90;;;;;;5048381;28;20207;-66
2022/07/26 01:41:08;;;;;;;4.53;2.45;;;21.40;99.90;;;;;;5047230;28;20222;-66
2022/07/26 01:43:36;;;;;;;5.70;2.15;;;21.30;99.90;;;;;;5047107;28;20199;-66
2022/07/26 01:46:06;;;;;;;3.67;1.58;;;21.40;99.90;;;;;;5045702;28;20256;-66
2022/07/26 01:48:33;;;;;;;2.90;1.60;;;21.40;99.90;;;;;;5046772;28;20217;-66
2022/07/26 01:51:00;;;;;;;5.13;1.90;;;21.40;99.90;;;;;;5051662;28;20222;-66
2022/07/26 01:53:27;;;;;;;4.15;1.70;;;21.40;99.90;;;;;;5044978;28;20219;-66
2022/07/26 01:55:54;;;;;;;4.35;2.00;;;21.50;99.90;;;;;;5051650;28;20216;-66
2022/07/26 01:58:20;;;;;;;4.57;1.73;;;21.50;99.90;;;;;;5047537;28;20191;-66
2022/07/26 02:00:48;;;;;;;2.42;1.60;;;21.50;99.90;;;;;;5046699;28;20647;-66
2022/07/26 02:03:14;;;;;;;4.93;2.25;;;21.40;99.90;;;;;;5036051;28;20210;-65
2022/07/26 02:05:41;;;;;;;3.85;2.10;;;21.30;99.90;;;;;;5046178;28;20199;-66
2022/07/26 02:08:09;;;;;;;4.95;1.80;;;21.30;99.90;;;;;;5049699;28;20198;-66
2022/07/26 02:13:22;;;;;;;4.30;1.88;;;21.00;99.90;;;;;;5050230;28;20309;-67
2022/07/26 02:15:49;;;;;;;3.70;1.90;;;20.90;99.90;;;;;;5048411;28;20206;-66
2022/07/26 02:18:16;;;;;;;4.95;1.95;;;20.90;99.90;;;;;;5051463;28;20217;-66
2022/07/26 02:20:43;;;;;;;4.72;1.90;;;20.80;99.90;;;;;;5045120;28;20248;-66
2022/07/26 02:23:09;;;;;;;3.97;1.65;;;20.70;99.90;;;;;;5048241;28;20213;-66
2022/07/26 02:25:36;;;;;;;6.23;1.87;;;20.70;99.90;;;;;;5048416;28;20198;-66
2022/07/26 02:28:03;;;;;;;3.27;1.77;;;20.60;99.90;;;;;;5045348;28;20608;-66
2022/07/26 02:30:30;;;;;;;4.70;1.77;;;20.70;99.90;;;;;;5044305;28;20218;-66
2022/07/26 02:32:56;;;;;;;3.80;2.00;;;20.70;99.90;;;;;;5049859;28;20214;-66
2022/07/26 02:35:23;;;;;;;4.30;2.13;;;20.70;99.90;;;;;;5050737;28;20565;-65
2022/07/26 02:37:50;;;;;;;5.95;1.92;;;20.70;99.90;;;;;;5046383;28;20195;-66
2022/07/26 02:40:16;;;;;;;3.87;2.20;;;20.70;99.90;;;;;;5053551;28;20248;-66
2022/07/26 02:42:45;;;;;;;2.90;2.10;;;20.80;99.90;;;;;;5047726;28;20647;-66
2022/07/26 02:45:11;;;;;;;4.17;1.77;;;20.80;99.90;;;;;;5049699;28;20205;-66
2022/07/26 02:47:49;;;;;;;3.03;1.80;;;20.80;99.90;;;;;;5051520;28;20205;-66
2022/07/26 02:50:20;;;;;;;4.78;2.03;;;20.70;99.90;;;;;;5046458;28;20225;-66
2022/07/26 02:52:47;;;;;;;3.20;1.70;;;20.60;99.90;;;;;;5048724;28;20215;-66
2022/07/26 02:55:16;;;;;;;6.97;2.13;;;20.50;99.90;;;;;;5052493;28;20210;-66
2022/07/26 02:57:43;;;;;;;4.17;1.97;;;20.30;99.90;;;;;;5054499;28;20202;-66
2022/07/26 03:00:15;;;;;;;3.13;1.93;;;20.30;99.90;;;;;;5054991;28;20207;-66
2022/07/26 03:02:41;;;;;;;3.53;2.00;;;20.20;99.90;;;;;;5051239;28;20207;-66
2022/07/26 03:05:09;;;;;;;5.97;2.27;;;20.20;99.90;;;;;;5048732;28;20694;-66
2022/07/26 03:07:36;;;;;;;7.83;2.33;;;20.00;99.90;;;;;;5052443;28;20552;-66
2022/07/26 03:10:04;;;;;;;3.60;2.10;;;19.90;99.90;;;;;;5051258;28;20211;-66
2022/07/26 03:12:31;;;;;;;3.97;2.00;;;19.80;99.90;;;;;;5049961;28;20225;-66
2022/07/26 03:14:57;;;;;;;3.03;2.00;;;19.70;99.90;;;;;;5049572;28;20211;-66
2022/07/26 03:17:24;;;;;;;4.17;2.00;;;19.60;99.90;;;;;;5054644;28;20662;-66
2022/07/26 03:19:51;;;;;;;5.67;2.13;;;19.60;99.90;;;;;;5052780;28;20194;-66
2022/07/26 03:22:17;;;;;;;3.90;2.40;;;19.50;99.90;;;;;;5052317;28;20218;-66
2022/07/26 03:24:44;;;;;;;4.07;2.37;;;19.50;99.90;;;;;;5052030;28;20190;-67
2022/07/26 03:27:11;;;;;;;2.97;1.80;;;19.40;99.90;;;;;;5055051;28;20201;-66
2022/07/26 03:29:37;;;;;;;2.27;2.00;;;19.60;99.90;;;;;;5051954;28;20209;-66
2022/07/26 03:32:04;;;;;;;2.97;1.80;;;19.50;99.90;;;;;;5051603;28;20599;-67
2022/07/26 03:34:31;;;;;;;4.03;2.33;;;19.50;99.90;;;;;;5055932;28;20659;-66
2022/07/26 03:36:58;;;;;;;3.03;2.10;;;19.40;99.90;;;;;;5051763;28;20227;-66
2022/07/26 03:39:25;;;;;;;6.27;2.40;;;19.20;99.90;;;;;;5049971;28;20213;-66
2022/07/26 03:41:51;;;;;;;6.00;2.07;;;19.10;99.90;;;;;;5056327;28;20241;-66
2022/07/26 03:44:18;;;;;;;6.00;2.00;;;19.10;99.90;;;;;;5049484;28;20202;-66
2022/07/26 03:46:45;;;;;;;5.30;1.90;;;19.00;99.90;;;;;;5049319;28;20210;-65
2022/07/26 03:49:11;;;;;;;4.27;2.10;;;19.00;99.90;;;;;;5055935;28;20194;-66
2022/07/26 03:51:42;;;;;;;4.70;2.30;;;19.00;99.90;;;;;;5049311;28;20690;-66
2022/07/26 03:54:09;;;;;;;7.30;2.20;;;19.00;99.90;;;;;;5049442;28;20225;-66
2022/07/26 03:56:37;;;;;;;6.33;1.90;;;18.90;99.90;;;;;;5049322;28;20202;-66
2022/07/26 03:59:08;;;;;;;3.33;1.63;;;18.90;99.90;;;;;;5053607;28;20194;-65
2022/07/26 04:01:40;;;;;;;4.23;2.10;;;18.90;99.90;;;;;;5049460;28;20211;-66
2022/07/26 04:04:08;;;;;;;3.57;1.83;;;18.90;99.90;;;;;;5048281;28;20589;-66
2022/07/26 04:06:38;;;;;;;7.40;2.30;;;18.90;99.90;;;;;;5047622;28;20198;-66
2022/07/26 04:09:06;;;;;;;4.73;1.90;;;18.90;99.90;;;;;;5054302;28;20715;-66
2022/07/26 04:11:34;;;;;;;3.10;1.83;;;18.90;99.90;;;;;;5055476;28;20238;-66
2022/07/26 04:14:01;;;;;;;4.43;2.13;;;19.00;99.90;;;;;;5047187;28;21774;-66
2022/07/26 04:16:27;;;;;;;2.80;1.90;;;19.00;99.90;;;;;;5050009;28;21553;-66
2022/07/26 04:18:54;;;;;;;6.40;2.13;;;19.00;99.90;;;;;;5047000;28;20718;-66
2022/07/26 04:21:21;;;;;;;5.97;2.17;;;18.90;99.90;;;;;;5050587;28;20218;-66
2022/07/26 04:23:48;;;;;;;2.90;2.03;;;18.90;99.90;;;;;;5055438;28;20200;-66
2022/07/26 04:26:20;;;;;;;2.87;1.70;;;18.90;99.90;;;;;;5055340;28;20216;-66
2022/07/26 04:28:46;;;;;;;5.53;2.30;;;19.00;99.90;;;;;;5051605;28;20549;-66
2022/07/26 04:31:13;;;;;;;3.07;1.97;;;19.00;99.90;;;;;;5048879;28;20229;-66
2022/07/26 04:33:40;;;;;;;3.37;2.07;;;19.00;99.90;;;;;;5039993;28;20218;-65
2022/07/26 04:36:07;;;;;;;5.13;1.83;;;18.90;99.90;;;;;;5040804;28;20697;-66
2022/07/26 04:38:34;;;;;;;5.73;1.87;;;18.80;99.90;;;;;;5038315;28;20211;-66
2022/07/26 04:41:00;;;;;;;3.80;1.77;;;18.80;99.90;;;;;;5040190;28;20211;-66
2022/07/26 04:43:27;;;;;;;3.67;1.97;;;18.90;99.90;;;;;;5040559;28;20205;-66
2022/07/26 04:45:56;;;;;;;4.43;2.00;;;18.90;99.90;;;;;;5041481;28;20197;-66
2022/07/26 04:48:23;;;;;;;3.53;1.97;;;19.00;99.90;;;;;;5043736;28;20280;-66
2022/07/26 04:50:50;;;;;;;3.57;1.70;;;19.10;99.90;;;;;;5041972;28;20242;-66
2022/07/26 04:53:17;;;;;;;2.80;1.70;;;19.10;99.90;;;;;;5046865;28;20225;-66
2022/07/26 04:55:44;;;;;;;2.90;1.50;;;19.10;99.90;;;;;;5048311;28;20198;-65
2022/07/26 04:58:11;;;;;;;2.70;1.53;;;19.10;99.90;;;;;;5051409;28;20198;-65
2022/07/26 05:00:38;;;;;;;3.27;1.50;;;19.20;99.90;;;;;;5042850;28;20540;-65
2022/07/26 05:03:24;;;;;;;3.00;1.70;;;19.30;99.90;;;;;;5050208;28;20198;-65
2022/07/26 05:05:51;;;;;;;2.97;1.60;;;19.20;99.90;;;;;;5049819;28;20201;-65
2022/07/26 05:08:18;;;;;;;2.07;1.27;;;19.30;99.90;;;;;;5046070;28;20301;-65
2022/07/26 05:10:45;;;;;;;2.77;1.50;;;19.30;99.90;;;;;;5046747;28;20231;-65
2022/07/26 05:13:14;;;;;;;2.80;1.30;;;19.30;99.90;;;;;;5053327;28;20320;-65
2022/07/26 05:15:48;;;;;;;4.17;1.87;;;19.40;99.90;;;;;;5048998;28;20200;-65
2022/07/26 05:18:19;;;;;;;2.10;1.30;;;19.40;99.90;;;;;;5047170;28;20203;-65
2022/07/26 05:20:50;;;;;;;5.03;1.40;;;19.50;99.90;;;;;;5045305;28;20664;-65
2022/07/26 05:23:16;;;;;;;5.00;1.50;;;19.50;99.90;;;;;;5046546;28;20643;-66
2022/07/26 05:25:43;;;;;;;3.23;1.40;;;19.60;99.90;;;;;;5049259;28;20215;-65
2022/07/26 05:28:10;;;;;;;3.40;1.37;;;19.60;99.90;;;;;;5041529;28;20230;-65
2022/07/26 05:30:37;;;;;;;3.17;1.27;;;19.50;99.90;;;;;;5044880;28;20236;-67
2022/07/26 05:33:04;;;;;;;1.53;1.10;;;19.70;99.90;;;;;;5050125;28;20211;-65
2022/07/26 05:35:30;;;;;;;3.43;1.50;;;19.60;99.90;;;;;;5048726;28;20191;-65
2022/07/26 05:37:57;;;;;;;3.57;1.20;;;19.60;99.90;;;;;;5048649;28;20199;-65
2022/07/26 05:40:24;;;;;;;2.83;1.40;;;19.70;99.90;;;;;;5050740;28;20280;-65
2022/07/26 05:42:50;;;;;;;2.30;1.33;;;19.70;99.90;;;;;;5047427;28;20199;-65
2022/07/26 05:45:17;;;;;;;2.77;1.40;;;19.70;99.90;;;;;;5044455;28;20199;-65
2022/07/26 05:47:44;;;;;;;2.37;1.40;;;19.80;99.90;;;;;;5051869;28;20198;-65
2022/07/26 05:50:10;;;;;;;2.03;1.37;;;19.90;99.90;;;;;;5048376;28;20214;-65
2022/07/26 05:52:37;;;;;;;2.77;1.43;;;20.00;99.90;;;;;;5049070;28;20603;-65
2022/07/26 05:55:04;;;;;;;6.10;1.30;;;20.10;99.90;;;;;;5037667;28;20690;-64
2022/07/26 05:57:31;;;;;;;2.80;1.50;;;20.10;99.90;;;;;;5031345;28;20631;-65
2022/07/26 05:59:58;;;;;;;4.43;1.47;;;20.20;99.90;;;;;;5039523;28;20187;-65
2022/07/26 06:02:24;;;;;;;5.70;1.60;;;20.10;99.90;;;;;;5041170;28;20202;-64
2022/07/26 06:04:51;;;;;;;2.27;1.50;;;20.20;99.90;;;;;;5035879;28;20701;-64
2022/07/26 06:07:18;;;;;;;4.77;2.10;;;20.30;99.90;;;;;;5041100;28;20230;-64
2022/07/26 06:09:45;;;;;;;2.17;1.27;;;20.30;99.90;;;;;;5040588;28;20655;-64
2022/07/26 06:12:11;;;;;;;1.60;1.40;;;20.30;99.90;;;;;;5043399;28;20229;-64
2022/07/26 06:14:38;;;;;;;5.47;1.70;;;20.40;99.90;;;;;;5044433;28;20215;-64
2022/07/26 06:17:05;;;;;;;3.57;1.60;;;20.40;99.90;;;;;;5042753;28;20199;-64
2022/07/26 06:19:32;;;;;;;3.03;1.50;;;20.40;99.90;;;;;;5038911;28;20679;-65
2022/07/26 06:21:59;;;;;;;3.10;1.40;;;20.50;99.90;;;;;;5033465;28;20215;-65
2022/07/26 06:24:25;;;;;;;4.00;1.37;;;20.60;99.90;;;;;;5045113;28;20207;-64
2022/07/26 06:26:54;;;;;;;2.00;1.30;;;20.80;99.90;;;;;;5029168;28;20203;-65
2022/07/26 06:29:31;;;;;;;2.03;1.40;;;20.80;99.90;;;;;;5032772;28;20198;-65
2022/07/26 06:31:58;;;;;;;3.20;1.43;;;20.80;99.90;;;;;;5038766;28;20261;-65
2022/07/26 06:34:25;;;;;;;9.57;1.90;;;20.80;99.90;;;;;;5035652;28;20221;-65
2022/07/26 06:36:52;;;;;;;3.73;1.50;;;20.80;99.90;;;;;;5032891;28;20675;-65
2022/07/26 06:39:19;;;;;;;3.13;1.30;;;20.80;99.90;;;;;;5044290;28;20317;-65
2022/07/26 06:41:46;;;;;;;3.20;1.60;;;20.80;99.90;;;;;;5041331;28;20230;-65
2022/07/26 06:44:12;;;;;;;5.65;1.80;;;20.90;99.90;;;;;;5041750;28;20199;-65
2022/07/26 06:46:39;;;;;;;2.13;1.48;;;21.00;99.90;;;;;;5046065;28;20591;-65
2022/07/26 06:49:06;;;;;;;1.70;1.40;;;21.00;99.90;;;;;;5043428;28;20203;-65
2022/07/26 06:51:33;;;;;;;3.60;1.50;;;21.10;99.90;;;;;;5032167;28;20230;-65
2022/07/26 06:53:59;;;;;;;2.13;1.40;;;21.00;99.90;;;;;;5038089;28;20222;-65
2022/07/26 06:56:26;;;;;;;5.10;1.63;;;21.20;99.90;;;;;;5047192;28;20191;-65
2022/07/26 06:58:55;;;;;;;2.77;1.40;;;21.30;99.90;;;;;;5039517;28;20200;-65
2022/07/26 07:01:21;;;;;;;2.47;1.40;;;21.30;99.90;;;;;;5045535;28;20218;-65
2022/07/26 07:04:08;;;;;;;1.77;1.50;;;21.50;99.90;;;;;;5046822;28;20220;-67
2022/07/26 07:06:35;;;;;;;3.60;1.58;;;21.70;99.90;;;;;;5044777;28;20210;-68
2022/07/26 07:09:02;;;;;;;1.50;1.30;;;22.20;99.90;;;;;;5045844;28;20205;-67
2022/07/26 07:11:32;;;;;;;3.53;1.30;;;23.00;99.90;;;;;;5037368;28;20223;-66
2022/07/26 07:14:01;;;;;;;2.30;1.33;;;23.40;99.90;;;;;;5045463;28;20229;-67
2022/07/26 07:16:28;;;;;;;4.38;1.40;;;23.50;99.90;;;;;;5039842;28;20199;-67
2022/07/26 07:18:55;;;;;;;1.83;1.23;;;23.20;99.90;;;;;;5046526;28;20719;-67
2022/07/26 07:21:22;;;;;;;3.47;1.50;;;23.60;99.90;;;;;;5040482;28;20214;-68
2022/07/26 07:23:48;;;;;;;1.63;1.08;;;23.90;99.90;;;;;;5043030;28;20199;-67
2022/07/26 07:26:15;;;;;;;1.80;1.17;;;24.50;99.90;;;;;;5047598;28;20282;-67
2022/07/26 07:28:42;;;;;;;5.53;1.27;;;24.50;99.90;;;;;;5046680;28;20297;-67
2022/07/26 07:31:08;;;;;;;2.08;1.30;;;24.20;99.90;;;;;;5047767;28;20214;-67
2022/07/26 07:33:35;;;;;;;3.00;1.40;;;23.60;99.90;;;;;;5043285;28;20458;-66
2022/07/26 07:36:19;;;;;;;7.90;1.40;;;23.20;99.90;;;;;;5042179;28;20699;-67
2022/07/26 07:38:47;;;;;;;2.65;1.35;;;23.00;99.90;;;;;;5042489;28;20226;-66
2022/07/26 07:41:14;;;;;;;3.92;1.30;;;22.80;99.90;;;;;;5043827;28;20628;-66
2022/07/26 07:43:41;;;;;;;2.72;1.60;;;22.70;99.90;;;;;;5036969;28;20206;-66
2022/07/26 07:46:08;;;;;;;2.35;1.63;;;22.60;99.90;;;;;;5039308;28;20269;-66
2022/07/26 07:48:36;;;;;;;3.45;1.40;;;22.60;99.90;;;;;;5032508;28;20699;-66
2022/07/26 07:51:07;;;;;;;1.50;1.38;;;23.10;99.90;;;;;;5042472;28;20711;-66
2022/07/26 07:53:34;;;;;;;3.90;1.40;;;23.60;99.90;;;;;;5040582;28;20594;-67
2022/07/26 07:56:01;;;;;;;3.92;1.55;;;24.20;99.90;;;;;;5038060;28;20675;-66
2022/07/26 07:58:28;;;;;;;3.05;1.23;;;24.70;99.90;;;;;;5046627;28;20201;-66
2022/07/26 08:00:54;;;;;;;1.67;1.10;;;25.00;99.90;;;;;;5043292;28;21206;-66
2022/07/26 08:03:21;;;;;;;2.25;1.23;;;25.00;99.90;;;;;;5042476;28;20274;-66
2022/07/26 08:05:48;;;;;;;3.25;1.30;;;25.20;99.90;;;;;;5043971;28;20202;-66
2022/07/26 08:08:17;;;;;;;2.58;1.40;;;25.30;99.90;;;;;;5041409;28;20194;-66
2022/07/26 08:10:48;;;;;;;2.42;1.73;;;25.50;99.90;;;;;;5044560;28;20432;-66
2022/07/26 08:13:21;;;;;;;2.25;1.10;;;25.50;99.90;;;;;;5032727;28;20226;-66
2022/07/26 08:15:49;;;;;;;2.35;1.27;;;25.80;99.90;;;;;;5035481;28;20199;-66
2022/07/26 08:18:16;;;;;;;3.08;1.50;;;26.20;99.90;;;;;;5036565;28;20353;-66
2022/07/26 08:20:46;;;;;;;1.80;1.30;;;26.30;99.90;;;;;;5036079;28;20268;-66
2022/07/26 08:23:14;;;;;;;4.72;1.88;;;26.10;99.90;;;;;;5044767;28;20298;-66
2022/07/26 08:25:40;;;;;;;2.13;1.30;;;26.00;99.90;;;;;;5031988;28;20667;-66
2022/07/26 08:28:22;;;;;;;8.27;1.45;;;26.00;99.90;;;;;;5024650;28;20647;-66
2022/07/26 08:31:09;;;;;;;2.25;1.38;;;26.20;99.90;;;;;;5042848;28;20597;-66
2022/07/26 08:33:36;;;;;;;5.68;1.70;;;26.40;99.90;;;;;;5045663;28;20202;-66
2022/07/26 08:36:07;;;;;;;3.20;1.50;;;26.70;99.90;;;;;;5037346;28;20202;-67
2022/07/26 08:38:34;;;;;;;2.33;1.30;;;26.60;99.90;;;;;;5048754;28;20210;-66
2022/07/26 08:41:00;;;;;;;1.25;1.15;;;26.70;99.90;;;;;;5045675;28;20226;-66
2022/07/26 08:43:28;;;;;;;1.60;1.00;;;26.40;99.90;;;;;;5039043;28;20202;-66
2022/07/26 08:46:01;;;;;;;1.40;1.02;;;26.30;99.90;;;;;;5046035;28;20191;-66
2022/07/26 08:48:30;;;;;;;1.13;1.00;;;26.20;99.90;;;;;;5044939;28;20191;-66
2022/07/26 08:51:07;;;;;;;1.13;0.93;;;26.20;99.90;;;;;;5038623;28;20756;-66
2022/07/26 08:53:38;;;;;;;1.98;1.00;;;26.60;99.90;;;;;;5047158;28;20562;-66
2022/07/26 08:56:05;;;;;;;1.75;1.05;;;26.80;99.90;;;;;;5045988;28;20194;-66
2022/07/26 08:58:35;;;;;;;2.58;0.90;;;26.80;99.90;;;;;;5044688;28;20210;-67
2022/07/26 09:01:12;;;;;;;1.80;1.00;;;27.00;99.90;;;;;;5040705;28;20677;-66
2022/07/26 09:03:44;;;;;;;1.38;1.00;;;27.00;99.90;;;;;;5036925;28;20241;-66
2022/07/26 09:06:15;;;;;;;4.57;1.00;;;26.60;99.90;;;;;;5045463;28;20625;-66
2022/07/26 09:08:44;;;;;;;1.65;1.05;;;26.20;99.90;;;;;;5045156;28;20195;-66
2022/07/26 09:11:24;;;;;;;2.05;0.90;;;26.10;99.90;;;;;;5047271;28;20211;-66
2022/07/26 09:13:57;;;;;;;1.38;1.05;;;26.50;99.90;;;;;;5046210;28;20781;-66
2022/07/26 09:16:24;;;;;;;1.48;0.80;;;27.10;99.90;;;;;;5042021;28;20581;-66
2022/07/26 09:18:51;;;;;;;1.58;1.08;;;27.00;99.90;;;;;;5042059;28;20283;-66
2022/07/26 09:21:32;;;;;;;1.83;0.93;;;26.80;99.90;;;;;;5046142;28;20222;-67
2022/07/26 09:23:59;;;;;;;1.80;1.10;;;26.50;99.90;;;;;;5044043;28;20211;-65
2022/07/26 09:26:26;;;;;;;1.55;1.10;;;26.60;99.90;;;;;;5047287;28;20202;-67
2022/07/26 09:29:11;;;;;;;4.57;1.08;;;26.70;99.90;;;;;;5036536;28;20195;-66
2022/07/26 09:31:39;;;;;;;1.63;0.82;;;26.80;99.90;;;;;;5038945;28;20219;-66
2022/07/26 09:34:06;;;;;;;1.23;1.00;;;27.00;99.90;;;;;;5044621;28;20660;-66
2022/07/26 09:36:52;;;;;;;3.88;1.02;;;27.30;99.90;;;;;;5038732;28;20191;-67
2022/07/26 09:39:19;;;;;;;1.25;0.80;;;27.20;99.90;;;;;;5037618;28;20198;-67
2022/07/26 09:42:07;;;;;;;1.10;1.00;;;26.70;99.90;;;;;;5043986;28;20215;-66
2022/07/26 09:44:54;;;;;;;2.05;1.10;;;26.50;99.90;;;;;;5039270;28;20220;-67
2022/07/26 09:47:22;;;;;;;1.40;1.00;;;26.60;99.90;;;;;;5035164;28;20195;-67
2022/07/26 09:49:48;;;;;;;1.63;1.15;;;26.90;99.90;;;;;;5043014;28;20214;-67
2022/07/26 09:52:20;;;;;;;1.40;0.90;;;27.20;99.90;;;;;;5042851;28;20686;-66
2022/07/26 09:54:48;;;;;;;1.45;1.00;;;27.40;99.90;;;;;;5036637;28;20819;-67
2022/07/26 09:57:20;;;;;;;2.15;1.20;;;27.60;99.90;;;;;;5034987;28;20195;-66
2022/07/26 09:59:46;;;;;;;1.45;1.00;;;27.40;99.90;;;;;;5035509;28;20205;-66
2022/07/26 10:02:13;;;;;;;1.08;0.98;;;27.50;99.90;;;;;;5043137;28;20209;-66
2022/07/26 10:04:41;;;;;;;1.58;1.00;;;27.50;99.90;;;;;;5037620;28;20195;-67
2022/07/26 10:07:09;;;;;;;1.92;1.00;;;27.80;99.90;;;;;;5039567;28;20253;-67
2022/07/26 10:09:53;;;;;;;3.78;1.10;;;28.10;99.90;;;;;;5031429;28;20202;-67
2022/07/26 10:12:22;;;;;;;2.40;1.10;;;28.60;99.90;;;;;;5038298;28;20205;-67
2022/07/26 10:14:56;;;;;;;1.30;0.90;;;29.10;99.90;;;;;;5038323;28;20226;-67
2022/07/26 10:17:28;;;;;;;1.52;0.90;;;29.50;99.90;;;;;;5041179;28;20667;-67
2022/07/26 10:20:02;;;;;;;3.83;1.02;;;29.80;99.90;;;;;;5032366;28;20194;-67
2022/07/26 10:22:35;;;;;;;1.75;1.30;;;29.50;99.90;;;;;;5030871;28;20199;-66
2022/07/26 10:25:17;;;;;;;1.65;1.42;;;28.70;99.90;;;;;;5042009;28;20504;-67
2022/07/26 10:27:44;;;;;;;2.15;1.30;;;27.60;99.90;;;;;;5040994;28;20196;-66
2022/07/26 10:30:17;;;;;;;1.95;1.15;;;27.20;99.90;;;;;;5042946;28;20214;-66
2022/07/26 10:32:59;;;;;;;1.58;1.10;;;27.50;99.90;;;;;;5041669;28;20194;-66
2022/07/26 10:35:32;;;;;;;2.97;1.10;;;27.70;99.90;;;;;;5039044;28;20219;-67
2022/07/26 10:38:05;;;;;;;3.25;1.30;;;27.90;99.90;;;;;;5037204;28;20195;-66
2022/07/26 10:40:32;;;;;;;3.13;1.20;;;28.00;99.90;;;;;;5040172;28;20237;-67
2022/07/26 10:43:11;;;;;;;2.90;1.40;;;27.80;99.90;;;;;;5042756;28;20210;-67
2022/07/26 10:46:16;;;;;;;4.65;1.52;;;27.80;99.90;;;;;;5041892;28;20199;-67
2022/07/26 10:49:05;;;;;;;2.65;1.05;;;27.50;99.90;;;;;;5041300;28;20521;-68
2022/07/26 10:51:37;;;;;;;1.60;1.02;;;27.30;99.90;;;;;;5043246;28;20599;-68
2022/07/26 10:54:07;;;;;;;4.72;1.20;;;27.20;99.90;;;;;;5041628;28;20201;-68
2022/07/26 10:56:35;;;;;;;1.75;1.10;;;27.30;99.90;;;;;;5042708;28;20272;-68
2022/07/26 10:59:03;;;;;;;1.52;1.10;;;27.70;99.90;;;;;;5043157;28;20202;-68
2022/07/26 11:01:33;;;;;;;1.77;1.13;;;27.90;99.90;;;;;;5037028;28;20223;-68
2022/07/26 11:04:00;;;;;;;1.13;1.02;;;28.20;99.90;;;;;;5041788;28;20222;-68
2022/07/26 11:06:30;;;;;;;2.10;1.27;;;28.70;99.90;;;;;;5046737;28;20191;-68
2022/07/26 11:08:57;;;;;;;2.05;1.08;;;28.60;99.90;;;;;;5038795;28;20198;-68
2022/07/26 11:11:32;;;;;;;2.15;1.20;;;28.30;99.90;;;;;;5038464;28;20214;-68
2022/07/26 11:14:05;;;;;;;1.67;1.10;;;28.50;99.90;;;;;;5035786;28;20205;-68
2022/07/26 11:16:38;;;;;;;1.45;1.23;;;28.40;99.90;;;;;;5038562;28;20217;-68
2022/07/26 11:19:37;;;;;;;2.17;1.10;;;28.40;99.90;;;;;;5038009;28;20191;-68
2022/07/26 11:22:03;;;;;;;3.88;1.27;;;28.50;99.90;;;;;;5038825;28;20211;-68
2022/07/26 11:24:30;;;;;;;1.80;1.08;;;28.70;99.90;;;;;;5041366;28;20210;-68
2022/07/26 11:27:02;;;;;;;3.78;1.95;;;28.70;99.90;;;;;;5039969;28;20191;-68
2022/07/26 11:29:33;;;;;;;2.45;1.15;;;28.80;99.90;;;;;;5047614;28;20194;-68
2022/07/26 11:32:17;;;;;;;2.22;1.42;;;29.00;99.90;;;;;;5042089;28;20583;-68
2022/07/26 11:34:46;;;;;;;2.47;1.30;;;28.00;99.90;;;;;;5045134;28;20569;-67
2022/07/26 11:37:13;;;;;;;2.65;1.65;;;27.50;99.90;;;;;;5048658;28;20199;-67
2022/07/26 11:39:40;;;;;;;2.63;1.60;;;27.10;99.90;;;;;;5042536;28;20200;-67
2022/07/26 11:42:13;;;;;;;3.15;1.50;;;26.80;99.90;;;;;;5043562;28;20562;-67
2022/07/26 11:44:45;;;;;;;1.92;1.40;;;27.10;99.90;;;;;;5046226;28;20233;-68
2022/07/26 11:47:14;;;;;;;2.22;1.55;;;27.20;99.90;;;;;;5040333;28;20210;-68
2022/07/26 11:49:41;;;;;;;2.15;1.48;;;27.20;99.90;;;;;;5048862;28;20203;-68
2022/07/26 11:52:30;;;;;;;3.90;1.27;;;27.40;99.90;;;;;;5041062;28;20203;-68
2022/07/26 11:54:56;;;;;;;2.03;1.30;;;27.30;99.90;;;;;;5049141;28;20357;-68
2022/07/26 11:57:28;;;;;;;1.88;1.70;;;27.10;99.90;;;;;;5037999;28;20199;-68
2022/07/26 11:59:55;;;;;;;2.72;1.48;;;26.70;99.90;;;;;;5040353;28;20260;-68
2022/07/26 12:02:22;;;;;;;2.17;1.75;;;26.50;99.90;;;;;;5047279;28;20187;-68
2022/07/26 12:05:09;;;;;;;1.70;1.52;;;26.90;99.90;;;;;;5044137;28;20693;-67
2022/07/26 12:07:36;;;;;;;1.90;1.30;;;27.20;99.90;;;;;;5038660;28;20238;-68
2022/07/26 12:10:04;;;;;;;1.60;1.50;;;27.40;99.90;;;;;;5032635;28;20206;-67
2022/07/26 12:12:31;;;;;;;3.42;1.40;;;27.50;99.90;;;;;;5042221;28;20210;-67
2022/07/26 12:15:05;;;;;;;1.75;1.48;;;27.80;99.90;;;;;;5037208;28;20701;-68
2022/07/26 12:17:33;;;;;;;2.05;1.38;;;28.10;99.90;;;;;;5034901;28;20209;-67
2022/07/26 12:20:11;;;;;;;2.03;1.58;;;27.80;99.90;;;;;;5032856;28;20187;-68
2022/07/26 12:22:38;;;;;;;3.15;1.52;;;27.90;99.90;;;;;;5039896;28;20194;-68
2022/07/26 12:25:05;;;;;;;1.60;1.50;;;27.70;99.90;;;;;;5043586;28;20203;-68
2022/07/26 12:27:32;;;;;;;2.90;1.42;;;27.80;99.90;;;;;;5045890;28;20211;-68
2022/07/26 12:30:02;;;;;;;2.65;1.45;;;28.40;99.90;;;;;;5042616;28;20201;-68
2022/07/26 12:32:33;;;;;;;2.17;1.60;;;28.80;99.90;;;;;;5034123;28;20198;-67
2022/07/26 12:35:09;;;;;;;3.50;1.67;;;28.40;99.90;;;;;;5044291;28;20214;-68
2022/07/26 12:37:44;;;;;;;2.58;1.60;;;28.00;99.90;;;;;;5045818;28;20313;-67
2022/07/26 12:40:15;;;;;;;1.92;1.58;;;27.30;99.90;;;;;;5036516;28;20595;-68
2022/07/26 12:42:49;;;;;;;2.97;1.90;;;26.70;99.90;;;;;;5035773;28;20195;-67
2022/07/26 12:45:17;;;;;;;4.63;1.92;;;26.50;99.90;;;;;;5045624;28;20566;-68
2022/07/26 12:47:51;;;;;;;2.55;1.83;;;26.80;99.90;;;;;;5040104;28;20203;-68
2022/07/26 12:50:21;;;;;;;2.85;1.50;;;27.30;99.90;;;;;;5029364;28;20234;-68
2022/07/26 12:52:49;;;;;;;5.45;1.70;;;27.70;99.90;;;;;;5032734;28;20225;-68
2022/07/26 12:55:18;;;;;;;3.50;1.90;;;27.80;99.90;;;;;;5034107;28;20222;-68
2022/07/26 12:57:46;;;;;;;4.00;1.80;;;27.80;99.90;;;;;;5033479;28;20206;-68
2022/07/26 13:00:16;;;;;;;2.60;2.10;;;27.50;99.90;;;;;;5045674;28;20646;-68
2022/07/26 13:02:43;;;;;;;4.07;1.88;;;27.90;99.90;;;;;;5046678;28;20194;-68